createdAt,value
2022-12-24T00:01:07.862Z,85654.97
2022-12-24T00:03:37.186Z,85648.75
2022-12-24T00:06:09.391Z,85654.94
2022-12-24T00:08:36.611Z,85652.22
2022-12-24T00:11:03.689Z,85645.38
2022-12-24T00:13:30.662Z,85648.75
2022-12-24T00:15:57.605Z,85646.00
2022-12-24T00:18:24.883Z,85589.53
2022-12-24T00:20:55.013Z,85625.34
2022-12-24T00:23:25.415Z,85440.16
2022-12-24T00:25:52.670Z,85438.22
2022-12-24T00:28:23.265Z,85635.69
2022-12-24T00:30:50.323Z,85592.13
2022-12-24T00:33:24.033Z,85614.84
2022-12-24T00:35:53.013Z,85639.53
2022-12-24T00:38:20.123Z,85596.22
2022-12-24T00:40:47.152Z,85640.28
2022-12-24T00:43:14.181Z,85636.78
2022-12-24T00:45:41.153Z,85620.00
2022-12-24T00:48:08.080Z,85631.88
2022-12-24T00:50:35.106Z,85640.09
2022-12-24T00:53:02.049Z,85608.44
2022-12-24T00:55:30.702Z,85634.47
2022-12-24T00:58:06.442Z,85585.44
2022-12-24T01:00:34.112Z,85592.34
2022-12-24T01:03:01.439Z,85410.72
2022-12-24T01:05:28.869Z,85389.38
2022-12-24T01:07:56.078Z,85528.34
2022-12-24T01:10:33.082Z,85513.94
2022-12-24T01:13:05.558Z,85640.06
2022-12-24T01:15:32.830Z,85629.09
2022-12-24T01:17:59.878Z,85422.13
2022-12-24T01:20:31.775Z,85537.59
2022-12-24T01:22:59.033Z,85624.38
2022-12-24T01:25:28.367Z,85531.88
2022-12-24T01:27:55.568Z,85541.78
2022-12-24T01:30:25.325Z,85596.84
2022-12-24T01:32:52.389Z,85612.06
2022-12-24T01:35:19.628Z,85566.59
2022-12-24T01:37:46.679Z,85605.81
2022-12-24T01:40:47.452Z,85550.19
2022-12-24T01:43:25.074Z,85544.69
2022-12-24T01:45:56.435Z,85606.63
2022-12-24T01:48:29.947Z,85416.81
2022-12-24T01:51:15.545Z,85389.97
2022-12-24T01:53:45.383Z,85587.34
2022-12-24T01:56:13.573Z,85601.22
2022-12-24T01:58:46.532Z,85562.69
2022-12-24T02:01:13.671Z,85551.69
2022-12-24T02:03:40.819Z,85610.84
2022-12-24T02:06:10.663Z,85580.59
2022-12-24T02:08:41.247Z,85604.00
2022-12-24T02:11:22.063Z,85591.63
2022-12-24T02:13:57.741Z,85610.19
2022-12-24T02:16:43.145Z,85612.22
2022-12-24T02:19:13.186Z,85608.19
2022-12-24T02:22:02.803Z,85599.84
2022-12-24T02:24:54.120Z,85613.59
2022-12-24T02:27:59.403Z,85614.97
2022-12-24T02:30:34.900Z,85620.44
2022-12-24T02:33:12.981Z,85514.50
2022-12-24T02:35:50.723Z,85558.56
2022-12-24T02:38:31.840Z,85584.78
2022-12-24T02:41:04.663Z,85590.97
2022-12-24T02:43:36.074Z,85608.09
2022-12-24T02:46:13.893Z,85585.38
2022-12-24T02:48:46.765Z,85613.59
2022-12-24T02:51:13.913Z,85537.19
2022-12-24T02:53:41.585Z,85643.69
2022-12-24T02:56:36.146Z,85607.44
2022-12-24T02:59:39.263Z,85591.56
2022-12-24T03:02:40.390Z,85614.91
2022-12-24T03:05:24.019Z,85598.44
2022-12-24T03:07:59.864Z,85615.66
2022-12-24T03:10:34.851Z,85621.81
2022-12-24T03:13:10.805Z,85622.50
2022-12-24T03:15:39.718Z,85596.31
2022-12-24T03:18:10.864Z,85599.72
2022-12-24T03:20:42.114Z,85621.72
2022-12-24T03:23:09.195Z,85616.25
2022-12-24T03:25:40.479Z,85618.38
2022-12-24T03:28:08.967Z,85618.38
2022-12-24T03:30:39.124Z,85631.41
2022-12-24T03:33:06.167Z,85564.03
2022-12-24T03:35:33.221Z,85610.84
2022-12-24T03:38:00.097Z,85562.72
2022-12-24T03:40:27.008Z,85601.84
2022-12-24T03:42:53.939Z,85597.09
2022-12-24T03:45:20.893Z,85548.25
2022-12-24T03:47:48.067Z,85572.31
2022-12-24T03:50:15.224Z,85597.19
2022-12-24T03:52:42.168Z,85558.63
2022-12-24T03:55:09.263Z,85601.88
2022-12-24T03:57:36.216Z,85603.97
2022-12-24T04:00:05.474Z,85597.09
2022-12-24T04:02:38.918Z,85582.63
2022-12-24T04:05:07.056Z,85606.69
2022-12-24T04:07:34.521Z,85577.75
2022-12-24T04:10:01.423Z,85606.69
2022-12-24T04:12:28.356Z,85612.09
2022-12-24T04:14:55.363Z,85609.41
2022-12-24T04:17:22.313Z,85587.44
2022-12-24T04:19:49.297Z,85575.72
2022-12-24T04:22:16.421Z,85571.00
2022-12-24T04:24:43.373Z,85591.63
2022-12-24T04:27:10.312Z,85591.66
2022-12-24T04:29:37.212Z,85568.91
2022-12-24T04:32:04.316Z,85593.00
2022-12-24T04:34:31.292Z,85588.94
2022-12-24T04:36:58.342Z,85594.41
2022-12-24T04:39:25.373Z,85594.38
2022-12-24T04:41:52.285Z,85542.72
2022-12-24T04:44:19.219Z,85531.13
2022-12-24T04:46:46.084Z,85561.34
2022-12-24T04:49:13.164Z,85583.34
2022-12-24T04:51:40.157Z,85595.03
2022-12-24T04:54:07.175Z,85599.81
2022-12-24T04:56:34.179Z,85601.16
2022-12-24T04:59:01.818Z,85593.69
2022-12-24T05:01:31.976Z,85600.50
2022-12-24T05:03:59.499Z,85581.16
2022-12-24T05:06:30.802Z,85608.66
2022-12-24T05:08:59.432Z,85585.22
2022-12-24T05:11:26.578Z,85601.13
2022-12-24T05:13:53.525Z,85610.69
2022-12-24T05:16:22.319Z,85617.53
2022-12-24T05:18:49.788Z,85616.19
2022-12-24T05:21:20.040Z,85612.75
2022-12-24T05:24:06.428Z,85591.38
2022-12-24T05:26:38.272Z,85617.50
2022-12-24T05:29:06.171Z,85570.78
2022-12-24T05:31:34.115Z,85614.72
2022-12-24T05:34:01.632Z,85607.84
2022-12-24T05:36:28.795Z,85609.19
2022-12-24T05:38:55.855Z,85594.78
2022-12-24T05:41:23.632Z,85624.31
2022-12-24T05:43:50.686Z,85596.75
2022-12-24T05:46:21.869Z,85624.28
2022-12-24T05:48:49.525Z,85592.00
2022-12-24T05:51:22.280Z,85614.66
2022-12-24T05:53:50.978Z,85614.69
2022-12-24T05:56:20.773Z,85601.53
2022-12-24T05:58:48.258Z,85629.06
2022-12-24T06:01:15.775Z,85574.63
2022-12-24T06:03:42.901Z,85616.56
2022-12-24T06:06:11.287Z,85629.03
2022-12-24T06:08:39.155Z,85620.75
2022-12-24T06:11:08.844Z,85625.56
2022-12-24T06:13:36.431Z,85627.50
2022-12-24T06:16:05.582Z,85632.25
2022-12-24T06:18:34.207Z,85628.19
2022-12-24T06:21:02.320Z,85614.41
2022-12-24T06:23:31.834Z,85615.84
2022-12-24T06:26:03.137Z,85622.63
2022-12-24T06:28:36.277Z,85624.75
2022-12-24T06:31:04.570Z,85629.50
2022-12-24T06:33:32.736Z,85597.09
2022-12-24T06:35:59.998Z,85630.13
2022-12-24T06:38:26.949Z,85590.91
2022-12-24T06:40:56.008Z,85634.94
2022-12-24T06:43:23.266Z,85631.50
2022-12-24T06:45:50.462Z,85621.19
2022-12-24T06:48:17.975Z,85622.44
2022-12-24T06:50:45.466Z,85638.41
2022-12-24T06:53:12.429Z,85640.47
2022-12-24T06:55:39.415Z,85588.13
2022-12-24T06:58:06.434Z,85605.38
2022-12-24T07:00:33.666Z,85606.22
2022-12-24T07:03:00.750Z,85641.31
2022-12-24T07:05:28.075Z,85591.84
2022-12-24T07:07:55.159Z,85605.66
2022-12-24T07:10:22.782Z,85600.84
2022-12-24T07:12:49.722Z,85628.44
2022-12-24T07:15:17.307Z,85610.56
2022-12-24T07:17:44.655Z,85627.16
2022-12-24T07:20:15.181Z,85545.28
2022-12-24T07:22:43.351Z,85603.09
2022-12-24T07:25:11.806Z,85616.16
2022-12-24T07:27:39.635Z,85584.66
2022-12-24T07:30:07.737Z,85628.00
2022-12-24T07:32:34.800Z,85590.91
2022-12-24T07:35:01.825Z,85632.28
2022-12-24T07:37:28.931Z,85626.16
2022-12-24T07:39:55.958Z,85624.19
2022-12-24T07:42:22.973Z,85616.72
2022-12-24T07:44:50.009Z,85624.25
2022-12-24T07:47:17.089Z,85590.56
2022-12-24T07:49:44.024Z,85631.88
2022-12-24T07:52:11.025Z,85620.88
2022-12-24T07:54:37.985Z,85636.06
2022-12-24T07:57:04.977Z,85616.81
2022-12-24T07:59:32.004Z,85631.97
2022-12-24T08:01:59.103Z,85654.63
2022-12-24T08:04:26.181Z,85632.00
2022-12-24T08:06:53.051Z,85636.19
2022-12-24T08:09:19.918Z,85603.91
2022-12-24T08:11:51.928Z,85641.75
2022-12-24T08:14:20.055Z,85622.56
2022-12-24T08:16:47.178Z,85643.19
2022-12-24T08:19:14.337Z,85656.97
2022-12-24T08:21:41.331Z,85652.81
2022-12-24T08:24:08.500Z,85661.78
2022-12-24T08:26:35.736Z,85661.09
2022-12-24T08:29:04.047Z,85637.06
2022-12-24T08:31:36.552Z,85651.50
2022-12-24T08:34:08.292Z,85625.41
2022-12-24T08:36:35.893Z,85668.00
2022-12-24T08:39:03.852Z,85646.03
2022-12-24T08:41:32.176Z,85657.03
2022-12-24T08:43:59.263Z,85623.38
2022-12-24T08:46:26.770Z,85641.94
2022-12-24T08:48:53.887Z,85632.31
2022-12-24T08:51:20.828Z,85618.59
2022-12-24T08:53:47.943Z,85659.78
2022-12-24T08:56:15.064Z,85649.50
2022-12-24T08:58:42.328Z,85672.19
2022-12-24T09:01:14.900Z,85664.59
2022-12-24T09:03:42.539Z,85663.28
2022-12-24T09:06:10.521Z,85671.50
2022-12-24T09:08:37.937Z,85635.78
2022-12-24T09:11:10.773Z,85641.97
2022-12-24T09:13:38.255Z,85632.34
2022-12-24T09:16:06.206Z,85670.81
2022-12-24T09:18:33.485Z,85661.19
2022-12-24T09:21:06.563Z,85663.91
2022-12-24T09:23:36.144Z,85669.38
2022-12-24T09:26:13.725Z,85648.78
2022-12-24T09:28:40.852Z,85640.53
2022-12-24T09:31:07.969Z,85667.25
2022-12-24T09:33:37.449Z,85668.59
2022-12-24T09:36:05.565Z,85670.66
2022-12-24T09:38:33.566Z,85638.38
2022-12-24T09:41:07.115Z,85669.19
2022-12-24T09:43:37.926Z,85610.16
2022-12-24T09:46:08.210Z,85663.66
2022-12-24T09:48:39.641Z,85643.69
2022-12-24T09:51:09.861Z,85605.88
2022-12-24T09:53:40.757Z,85630.50
2022-12-24T09:56:41.801Z,85660.59
2022-12-24T09:59:18.294Z,85655.72
2022-12-24T10:01:45.488Z,85657.03
2022-12-24T10:04:22.027Z,85632.91
2022-12-24T10:07:03.007Z,85654.09
2022-12-24T10:09:48.211Z,85653.34
2022-12-24T10:12:18.098Z,85656.03
2022-12-24T10:15:10.311Z,85659.47
2022-12-24T10:18:11.478Z,85662.75
2022-12-24T10:20:45.647Z,85649.03
2022-12-24T10:23:38.605Z,85665.47
2022-12-24T10:26:14.537Z,85655.03
2022-12-24T10:28:47.375Z,85661.84
2022-12-24T10:31:15.349Z,85602.16
2022-12-24T10:33:43.912Z,85654.84
2022-12-24T10:36:19.283Z,85645.06
2022-12-24T10:38:46.740Z,85628.66
2022-12-24T10:41:15.466Z,85647.13
2022-12-24T10:43:45.195Z,85653.91
2022-12-24T10:46:39.349Z,85667.63
2022-12-24T10:49:12.947Z,85629.78
2022-12-24T10:51:48.547Z,85657.16
2022-12-24T10:54:26.560Z,85636.63
2022-12-24T10:57:00.376Z,85663.34
2022-12-24T10:59:50.398Z,85651.00
2022-12-24T11:02:38.783Z,85655.13
2022-12-24T11:05:34.558Z,85674.28
2022-12-24T11:08:06.638Z,85674.25
2022-12-24T11:10:37.016Z,85634.66
2022-12-24T11:13:36.441Z,85661.47
2022-12-24T11:16:02.080Z,85671.72
2022-12-24T11:18:29.775Z,85637.41
2022-12-24T11:20:59.656Z,85640.78
2022-12-24T11:23:28.514Z,85671.53
2022-12-24T11:25:57.253Z,85669.47
2022-12-24T11:28:33.653Z,85602.38
2022-12-24T11:31:20.839Z,85667.38
2022-12-24T11:33:51.320Z,85647.44
2022-12-24T11:36:22.146Z,85652.06
2022-12-24T11:38:59.253Z,85635.66
2022-12-24T11:41:26.843Z,85653.47
2022-12-24T11:44:04.014Z,85634.84
2022-12-24T11:46:43.689Z,85582.13
2022-12-24T11:49:22.387Z,85584.84
2022-12-24T11:52:10.387Z,85634.66
2022-12-24T11:55:13.747Z,85630.56
2022-12-24T11:58:00.748Z,85613.56
2022-12-24T12:00:28.845Z,85630.69
2022-12-24T12:02:59.487Z,85632.69
2022-12-24T12:05:33.949Z,85581.69
2022-12-24T12:08:30.565Z,85624.63
2022-12-24T12:11:00.115Z,85582.13
2022-12-24T12:13:33.414Z,85636.94
2022-12-24T12:16:57.397Z,85634.91
2022-12-24T12:19:26.162Z,85635.50
2022-12-24T12:21:53.343Z,85623.03
2022-12-24T12:24:32.424Z,85593.69
2022-12-24T12:27:40.387Z,85612.13
2022-12-24T12:30:17.942Z,85626.50
2022-12-24T12:33:22.531Z,85607.94
2022-12-24T12:35:51.065Z,85619.56
2022-12-24T12:38:29.294Z,85626.34
2022-12-24T12:41:20.756Z,85627.03
2022-12-24T12:44:02.662Z,85625.66
2022-12-24T12:46:54.743Z,85605.22
2022-12-24T12:49:40.453Z,85618.75
2022-12-24T12:52:33.899Z,85613.91
2022-12-24T12:55:24.728Z,85605.56
2022-12-24T12:57:58.098Z,85581.53
2022-12-24T13:00:25.896Z,85573.31
2022-12-24T13:03:05.217Z,85611.69
2022-12-24T13:06:13.380Z,85618.53
2022-12-24T13:08:58.466Z,85610.31
2022-12-24T13:11:43.556Z,85618.63
2022-12-24T13:14:22.881Z,85618.63
2022-12-24T13:16:58.731Z,85628.28
2022-12-24T13:19:49.849Z,85629.59
2022-12-24T13:22:18.729Z,85607.69
2022-12-24T13:24:54.357Z,85615.28
2022-12-24T13:27:32.054Z,85611.97
2022-12-24T13:30:27.634Z,85609.78
2022-12-24T13:32:55.395Z,85633.13
2022-12-24T13:35:22.435Z,85636.00
2022-12-24T13:37:50.915Z,85617.50
2022-12-24T13:40:26.912Z,85639.41
2022-12-24T13:43:03.084Z,85656.00
2022-12-24T13:45:30.306Z,85651.22
2022-12-24T13:48:02.524Z,85636.88
2022-12-24T13:50:41.539Z,85664.41
2022-12-24T13:53:33.148Z,85659.53
2022-12-24T13:56:17.884Z,85671.28
2022-12-24T13:58:49.303Z,85672.78
2022-12-24T14:01:35.610Z,85642.69
2022-12-24T14:04:07.045Z,85630.28
2022-12-24T14:06:38.041Z,85665.94
2022-12-24T14:09:16.847Z,85666.50
2022-12-24T14:11:58.934Z,85669.97
2022-12-24T14:14:29.174Z,85671.41
2022-12-24T14:17:00.416Z,85611.31
2022-12-24T14:19:48.379Z,85641.50
2022-12-24T14:22:38.864Z,85679.91
2022-12-24T14:25:23.638Z,85660.03
2022-12-24T14:28:06.108Z,85666.94
2022-12-24T14:30:33.337Z,85670.31
2022-12-24T14:33:00.281Z,85669.78
2022-12-24T14:35:37.122Z,85657.31
2022-12-24T14:38:08.126Z,85676.53
2022-12-24T14:40:57.116Z,85691.00
2022-12-24T14:43:43.192Z,85675.81
2022-12-24T14:46:31.793Z,85681.38
2022-12-24T14:49:28.244Z,85689.66
2022-12-24T14:52:00.679Z,85684.25
2022-12-24T14:54:37.686Z,85677.38
2022-12-24T14:57:25.487Z,85685.06
2022-12-24T15:00:02.339Z,85663.88
2022-12-24T15:02:43.945Z,85691.31
2022-12-24T15:05:12.742Z,85691.34
2022-12-24T15:07:47.492Z,85647.38
2022-12-24T15:10:42.841Z,85682.44
2022-12-24T15:13:37.227Z,85691.44
2022-12-24T15:16:08.714Z,85669.53
2022-12-24T15:18:38.096Z,85677.59
2022-12-24T15:21:08.049Z,85670.06
2022-12-24T15:23:37.501Z,85670.75
2022-12-24T15:26:09.100Z,85688.63
2022-12-24T15:28:39.365Z,85680.38
2022-12-24T15:31:22.014Z,85668.84
2022-12-24T15:33:53.842Z,85664.72
2022-12-24T15:36:34.587Z,85675.75
2022-12-24T15:39:16.961Z,85653.16
2022-12-24T15:42:04.515Z,85698.44
2022-12-24T15:44:37.258Z,85697.16
2022-12-24T15:47:07.828Z,85697.91
2022-12-24T15:49:36.767Z,85682.91
2022-12-24T15:52:06.882Z,85690.41
2022-12-24T15:54:34.418Z,85708.28
2022-12-24T15:57:21.627Z,85668.53
2022-12-24T15:59:57.055Z,85713.84
2022-12-24T16:02:36.196Z,85715.88
2022-12-24T16:05:22.618Z,85712.47
2022-12-24T16:08:22.614Z,85720.84
2022-12-24T16:11:08.204Z,85711.19
2022-12-24T16:13:43.995Z,85729.06
2022-12-24T16:16:16.103Z,85720.78
2022-12-24T16:18:43.446Z,85724.25
2022-12-24T16:21:18.948Z,85717.47
2022-12-24T16:23:48.836Z,85740.16
2022-12-24T16:26:16.421Z,85724.28
2022-12-24T16:28:43.487Z,85724.44
2022-12-24T16:31:29.816Z,85736.78
2022-12-24T16:33:59.121Z,85752.59
2022-12-24T16:36:26.702Z,85717.59
2022-12-24T16:39:12.270Z,85745.03
2022-12-24T16:41:57.905Z,85720.44
2022-12-24T16:44:24.949Z,85723.88
2022-12-24T16:46:53.604Z,85756.16
2022-12-24T16:49:22.547Z,85754.75
2022-12-24T16:51:49.891Z,85740.34
2022-12-24T16:54:16.940Z,85739.09
2022-12-24T16:56:44.818Z,85741.09
2022-12-24T16:59:20.650Z,85772.75
2022-12-24T17:01:48.586Z,85769.25
2022-12-24T17:04:17.390Z,85780.28
2022-12-24T17:06:45.107Z,85776.88
2022-12-24T17:09:12.978Z,85763.91
2022-12-24T17:11:39.951Z,85757.03
2022-12-24T17:14:09.954Z,85768.03
2022-12-24T17:16:39.559Z,85768.75
2022-12-24T17:19:06.745Z,85785.25
2022-12-24T17:21:34.597Z,85775.03
2022-12-24T17:24:01.629Z,85791.50
2022-12-24T17:26:28.742Z,85806.63
2022-12-24T17:28:57.018Z,85792.25
2022-12-24T17:31:24.904Z,85808.72
2022-12-24T17:33:53.046Z,85781.22
2022-12-24T17:36:20.311Z,85799.81
2022-12-24T17:38:47.625Z,85788.13
2022-12-24T17:41:17.310Z,85799.81
2022-12-24T17:43:44.726Z,85802.56
2022-12-24T17:46:18.020Z,85798.41
2022-12-24T17:48:45.420Z,85803.94
2022-12-24T17:51:14.386Z,85723.56
2022-12-24T17:53:42.954Z,85746.22
2022-12-24T17:56:12.481Z,85798.50
2022-12-24T17:58:43.825Z,85759.31
2022-12-24T18:01:17.583Z,85795.69
2022-12-24T18:03:45.885Z,85768.88
2022-12-24T18:06:14.423Z,85769.59
2022-12-24T18:08:42.723Z,85753.09
2022-12-24T18:11:20.760Z,85792.94
2022-12-24T18:13:48.922Z,85797.13
2022-12-24T18:16:24.171Z,85786.09
2022-12-24T18:18:52.188Z,85785.44
2022-12-24T18:21:21.487Z,85783.34
2022-12-24T18:23:50.811Z,85757.97
2022-12-24T18:26:19.160Z,85791.63
2022-12-24T18:28:47.480Z,85795.75
2022-12-24T18:31:20.093Z,85797.13
2022-12-24T18:33:48.963Z,85802.66
2022-12-24T18:36:16.102Z,85773.78
2022-12-24T18:38:42.996Z,85791.66
2022-12-24T18:41:13.113Z,85815.75
2022-12-24T18:43:41.565Z,85805.47
2022-12-24T18:46:13.967Z,85812.34
2022-12-24T18:48:41.065Z,85826.13
2022-12-24T18:51:09.413Z,85824.75
2022-12-24T18:53:39.499Z,85837.13
2022-12-24T18:56:15.947Z,85839.88
2022-12-24T18:58:44.024Z,85831.66
2022-12-24T19:01:17.774Z,85822.03
2022-12-24T19:03:45.700Z,85826.84
2022-12-24T19:06:12.722Z,85815.84
2022-12-24T19:08:57.221Z,85833.03
2022-12-24T19:11:27.192Z,85851.59
2022-12-24T19:13:54.216Z,85853.00
2022-12-24T19:16:21.983Z,85851.63
2022-12-24T19:18:49.620Z,85856.41
2022-12-24T19:21:18.074Z,85859.16
2022-12-24T19:23:46.306Z,85844.03
2022-12-24T19:26:15.065Z,85861.25
2022-12-24T19:28:42.886Z,85839.91
2022-12-24T19:31:13.012Z,85859.16
2022-12-24T19:33:43.755Z,85843.38
2022-12-24T19:36:14.482Z,85865.38
2022-12-24T19:38:41.744Z,85845.41
2022-12-24T19:41:17.217Z,85870.88
2022-12-24T19:43:47.217Z,85813.75
2022-12-24T19:46:17.663Z,85874.97
2022-12-24T19:48:50.271Z,85843.31
2022-12-24T19:51:17.945Z,85834.38
2022-12-24T19:53:45.095Z,85840.56
2022-12-24T19:56:19.050Z,85850.22
2022-12-24T19:58:46.328Z,85872.91
2022-12-24T20:01:16.544Z,85882.50
2022-12-24T20:03:45.243Z,85877.72
2022-12-24T20:06:13.095Z,85854.28
2022-12-24T20:08:40.760Z,85877.03
2022-12-24T20:11:10.077Z,85881.81
2022-12-24T20:13:38.395Z,85894.84
2022-12-24T20:16:11.238Z,85895.56
2022-12-24T20:18:38.395Z,85892.13
2022-12-24T20:21:09.037Z,85881.09
2022-12-24T20:23:40.774Z,85861.84
2022-12-24T20:26:11.045Z,85894.91
2022-12-24T20:28:38.775Z,85908.66
2022-12-24T20:31:21.061Z,85881.81
2022-12-24T20:33:48.968Z,85897.66
2022-12-24T20:36:18.961Z,85894.88
2022-12-24T20:38:46.954Z,85888.69
2022-12-24T20:41:16.440Z,85908.63
2022-12-24T20:43:48.315Z,85879.72
2022-12-24T20:46:17.543Z,85900.38
2022-12-24T20:48:45.182Z,85919.66
2022-12-24T20:51:24.625Z,85930.66
2022-12-24T20:53:53.818Z,85929.31
2022-12-24T20:56:21.486Z,85926.53
2022-12-24T20:58:48.759Z,85921.03
2022-12-24T21:01:24.532Z,85945.81
2022-12-24T21:03:53.735Z,85945.81
2022-12-24T21:06:21.156Z,85943.06
2022-12-24T21:08:52.744Z,85910.03
2022-12-24T21:11:38.452Z,85937.56
2022-12-24T21:14:05.829Z,85940.34
2022-12-24T21:16:35.374Z,85925.19
2022-12-24T21:19:02.625Z,85934.84
2022-12-24T21:21:30.063Z,85935.53
2022-12-24T21:23:57.421Z,85925.88
2022-12-24T21:26:24.532Z,85937.59
2022-12-24T21:28:51.705Z,85894.91
2022-12-24T21:31:19.341Z,85919.00
2022-12-24T21:33:46.555Z,85904.56
2022-12-24T21:36:14.630Z,85916.91
2022-12-24T21:38:42.387Z,85907.28
2022-12-24T21:41:12.859Z,85929.31
2022-12-24T21:43:43.021Z,85915.53
2022-12-24T21:46:13.107Z,85944.44
2022-12-24T21:48:58.818Z,85938.25
2022-12-24T21:51:27.067Z,85943.06
2022-12-24T21:54:13.779Z,85942.97
2022-12-24T21:57:00.118Z,85930.63
2022-12-24T21:59:27.559Z,85937.50
2022-12-24T22:01:55.957Z,85938.88
2022-12-24T22:04:23.811Z,85892.00
2022-12-24T22:07:09.638Z,85934.69
2022-12-24T22:09:57.102Z,85936.09
2022-12-24T22:12:24.286Z,85931.28
2022-12-24T22:14:52.102Z,85936.06
2022-12-24T22:17:24.803Z,85922.28
2022-12-24T22:19:53.796Z,85931.94
2022-12-24T22:22:21.161Z,85936.16
2022-12-24T22:24:48.216Z,85916.78
2022-12-24T22:27:15.118Z,85919.53
2022-12-24T22:29:42.147Z,85931.97
2022-12-24T22:32:09.847Z,85889.28
2022-12-24T22:34:36.803Z,85868.63
2022-12-24T22:37:03.856Z,85927.88
2022-12-24T22:39:30.979Z,85902.38
2022-12-24T22:42:01.179Z,85936.16
2022-12-24T22:44:28.235Z,85943.06
2022-12-24T22:46:55.479Z,85860.44
2022-12-24T22:49:22.526Z,85935.50
2022-12-24T22:51:49.623Z,85903.16
2022-12-24T22:54:16.787Z,85916.25
2022-12-24T22:56:43.878Z,85902.47
2022-12-24T22:59:14.010Z,85899.03
2022-12-24T23:01:43.586Z,85882.53
2022-12-24T23:04:11.493Z,85919.00
2022-12-24T23:06:39.111Z,85936.88
2022-12-24T23:09:08.271Z,85945.81
2022-12-24T23:11:35.595Z,85930.59
2022-12-24T23:14:21.138Z,85952.66
2022-12-24T23:16:48.208Z,85951.94
2022-12-24T23:19:18.553Z,85936.09
2022-12-24T23:21:45.565Z,85920.94
2022-12-24T23:24:12.573Z,85947.75
2022-12-24T23:26:40.335Z,85945.69
2022-12-24T23:29:07.307Z,85935.34
2022-12-24T23:31:35.070Z,85898.72
2022-12-24T23:34:02.183Z,85873.19
2022-12-24T23:36:29.322Z,85875.25
2022-12-24T23:38:57.704Z,85938.66
2022-12-24T23:41:24.720Z,85900.03
2022-12-24T23:43:52.221Z,85954.44
2022-12-24T23:46:20.518Z,85961.31
2022-12-24T23:48:48.126Z,85957.19
2022-12-24T23:51:23.739Z,85927.50
2022-12-24T23:53:52.484Z,85955.00
2022-12-24T23:56:20.860Z,85959.16
2022-12-24T23:58:48.259Z,85961.91
